Time;durP1;ratioP1;P1;durP2;ratioP2;P2;SDS_P1;SDS_P2;PMS_P1;PMS_P2;Temp;Humidity;BMP_temperature;BMP_pressure;BME280_temperature;BME280_humidity;BME280_pressure;Samples;Min_cycle;Max_cycle;Signal;HPM_P1;HPM_P2
2021/01/10 00:01:20;;;;;;;33.75;23.18;;;;;;;1.04;85.98;100122.02;1769541;81;21012;-69
2021/01/10 00:03:49;;;;;;;33.25;22.75;;;;;;;1.04;86.05;100125.02;1745720;81;20903;-69
2021/01/10 00:06:17;;;;;;;33.35;23.05;;;;;;;1.05;85.93;100126.70;1742463;81;20989;-69
2021/01/10 00:08:46;;;;;;;33.13;24.15;;;;;;;1.03;85.88;100128.02;1742406;82;21204;-70
2021/01/10 00:11:14;;;;;;;34.38;23.22;;;;;;;1.03;85.90;100135.70;1742358;82;21017;-69
2021/01/10 00:13:42;;;;;;;34.60;24.02;;;;;;;1.04;85.92;100132.70;1742451;82;20997;-69
2021/01/10 00:16:11;;;;;;;33.92;23.90;;;;;;;1.03;85.86;100135.70;1742416;82;21606;-70
2021/01/10 00:18:39;;;;;;;29.37;21.95;;;;;;;1.04;85.91;100132.70;1742440;81;20958;-69
2021/01/10 00:21:07;;;;;;;31.75;22.35;;;;;;;1.05;85.78;100130.55;1742400;82;21357;-70
2021/01/10 00:23:36;;;;;;;35.23;22.65;;;;;;;1.03;85.70;100134.42;1742373;82;20958;-69
2021/01/10 00:26:04;;;;;;;34.60;24.32;;;;;;;1.03;85.68;100131.86;1742512;82;21440;-69
2021/01/10 00:28:33;;;;;;;33.95;24.05;;;;;;;1.02;85.62;100134.02;1742429;82;21018;-69
2021/01/10 00:31:01;;;;;;;36.35;24.07;;;;;;;1.02;85.61;100140.86;1742424;82;21073;-70
2021/01/10 00:33:30;;;;;;;32.88;23.98;;;;;;;1.00;85.48;100137.03;1742416;82;21431;-70
2021/01/10 00:35:58;;;;;;;34.65;24.18;;;;;;;0.97;85.60;100141.77;1742353;82;20958;-69
2021/01/10 00:38:26;;;;;;;34.78;23.95;;;;;;;0.96;85.62;100142.64;1742383;81;20954;-69
2021/01/10 00:40:55;;;;;;;31.48;22.85;;;;;;;0.95;85.63;100137.10;1742400;82;21009;-70
2021/01/10 00:43:23;;;;;;;32.78;23.27;;;;;;;0.93;85.62;100141.41;1742360;82;21550;-70
2021/01/10 00:45:51;;;;;;;34.53;24.12;;;;;;;0.92;85.60;100140.99;1742402;82;21272;-70
2021/01/10 00:48:19;;;;;;;33.45;24.25;;;;;;;0.92;85.67;100150.40;1742340;82;20978;-70
2021/01/10 00:50:48;;;;;;;33.13;23.07;;;;;;;0.92;85.72;100138.86;1742384;82;20990;-70
2021/01/10 00:53:17;;;;;;;32.40;22.93;;;;;;;0.92;85.80;100143.98;1742373;82;21009;-70
2021/01/10 00:55:45;;;;;;;31.15;22.35;;;;;;;0.92;85.74;100142.27;1742438;82;20946;-70
2021/01/10 00:58:13;;;;;;;32.98;23.10;;;;;;;0.92;85.75;100133.30;1742430;82;21376;-70
2021/01/10 01:00:42;;;;;;;34.65;23.85;;;;;;;0.93;85.72;100132.43;1742312;82;20993;-70
2021/01/10 01:03:11;;;;;;;31.45;22.05;;;;;;;0.93;85.68;100132.43;1739223;81;21077;-69
2021/01/10 01:05:41;;;;;;;35.65;23.65;;;;;;;0.92;85.65;100134.58;1766285;81;21576;-70
2021/01/10 01:08:10;;;;;;;32.28;23.05;;;;;;;0.89;85.55;100142.31;1801601;79;20948;-70
2021/01/10 01:10:46;;;;;;;34.05;23.18;;;;;;;0.87;85.75;100141.92;1792346;79;21092;-69
2021/01/10 01:13:15;;;;;;;31.87;22.87;;;;;;;0.88;85.87;100143.62;1793244;80;21130;-70
2021/01/10 01:15:43;;;;;;;34.95;23.47;;;;;;;0.91;85.91;100144.86;1793307;80;21008;-69
2021/01/10 01:18:12;;;;;;;33.78;23.27;;;;;;;0.92;85.75;100142.27;1793165;80;21000;-69
2021/01/10 01:20:40;;;;;;;31.65;23.30;;;;;;;0.93;85.67;100145.25;1793410;80;21535;-69
2021/01/10 01:23:08;;;;;;;33.67;23.65;;;;;;;0.93;85.64;100142.69;1793324;80;21272;-69
2021/01/10 01:25:39;;;;;;;33.13;22.67;;;;;;;0.94;85.64;100147.38;1792273;80;20949;-69
2021/01/10 01:28:07;;;;;;;33.25;23.38;;;;;;;0.93;85.57;100146.53;1793306;80;20929;-69
2021/01/10 01:30:35;;;;;;;30.77;22.62;;;;;;;0.94;85.56;100158.91;1793407;79;20988;-69
2021/01/10 01:33:04;;;;;;;31.23;22.58;;;;;;;0.94;85.54;100149.94;1793430;79;21435;-69
2021/01/10 01:35:32;;;;;;;36.25;25.05;;;;;;;0.94;85.54;100157.20;1793344;80;22062;-69
2021/01/10 01:38:01;;;;;;;33.23;23.57;;;;;;;0.95;85.45;100155.05;1793287;80;21059;-69
2021/01/10 01:40:29;;;;;;;33.00;22.42;;;;;;;0.96;85.41;100159.74;1793338;80;20937;-69
2021/01/10 01:42:57;;;;;;;28.87;21.12;;;;;;;0.95;85.41;100158.89;1793330;80;21337;-69
2021/01/10 01:45:26;;;;;;;32.75;22.80;;;;;;;0.97;85.36;100155.87;1793390;79;20945;-69
2021/01/10 01:47:54;;;;;;;30.15;22.37;;;;;;;0.97;85.43;100166.13;1793315;79;21237;-69
2021/01/10 01:50:23;;;;;;;29.90;21.42;;;;;;;0.98;85.37;100169.10;1793273;80;21032;-69
2021/01/10 01:52:51;;;;;;;27.93;21.37;;;;;;;1.00;85.32;100165.23;1793348;80;20997;-69
2021/01/10 01:55:19;;;;;;;28.95;21.27;;;;;;;1.02;85.25;100162.22;1793351;80;21506;-69
2021/01/10 01:57:47;;;;;;;32.50;21.60;;;;;;;1.03;85.17;100173.32;1793372;80;20897;-70
2021/01/10 02:00:16;;;;;;;27.27;20.50;;;;;;;1.02;85.13;100172.91;1793338;80;21723;-69
2021/01/10 02:02:45;;;;;;;31.30;21.02;;;;;;;1.00;85.15;100176.77;1795160;79;21141;-70
2021/01/10 02:05:16;;;;;;;27.15;19.92;;;;;;;1.01;85.13;100179.75;1807477;79;20975;-69
2021/01/10 02:07:58;;;;;;;30.05;21.00;;;;;;;0.99;85.05;100182.34;1769662;81;21154;-70
2021/01/10 02:10:32;;;;;;;31.82;22.20;;;;;;;0.98;84.97;100174.67;1769634;81;20957;-69
2021/01/10 02:13:05;;;;;;;30.55;21.68;;;;;;;0.96;84.92;100193.07;1769734;81;21260;-69
2021/01/10 02:15:34;;;;;;;31.95;20.82;;;;;;;0.94;84.92;100189.24;1769547;81;21043;-69
2021/01/10 02:18:06;;;;;;;29.15;19.77;;;;;;;0.93;84.85;100193.95;1769584;81;21012;-69
2021/01/10 02:20:37;;;;;;;31.10;21.68;;;;;;;0.91;84.87;100189.29;1769572;81;20964;-69
2021/01/10 02:23:13;;;;;;;30.48;21.77;;;;;;;0.89;84.91;100190.17;1769529;81;20928;-69
2021/01/10 02:25:44;;;;;;;28.10;19.65;;;;;;;0.87;84.89;100188.06;1761689;81;22400;-69
2021/01/10 02:28:14;;;;;;;28.35;20.10;;;;;;;0.87;84.92;100188.91;1769452;81;21032;-69
2021/01/10 02:30:43;;;;;;;28.32;19.77;;;;;;;0.87;84.96;100188.91;1769646;81;21582;-69
2021/01/10 02:33:29;;;;;;;28.23;19.82;;;;;;;0.88;84.86;100194.89;1769528;81;21016;-70
2021/01/10 02:35:57;;;;;;;28.23;19.90;;;;;;;0.85;84.79;100193.66;1763759;81;21035;-70
2021/01/10 02:38:49;;;;;;;29.30;19.87;;;;;;;0.85;84.82;100200.91;1769537;81;21305;-70
2021/01/10 02:41:42;;;;;;;27.55;20.40;;;;;;;0.84;84.76;100191.52;1769462;81;20972;-69
2021/01/10 02:44:27;;;;;;;24.75;17.62;;;;;;;0.81;84.70;100203.09;1769556;81;21012;-69
2021/01/10 02:46:56;;;;;;;27.13;19.50;;;;;;;0.79;84.70;100202.30;1761639;81;20964;-69
2021/01/10 02:49:24;;;;;;;26.30;19.23;;;;;;;0.77;84.70;100204.47;1769518;81;21024;-69
2021/01/10 02:51:53;;;;;;;28.62;20.00;;;;;;;0.77;84.72;100205.75;1769607;81;22655;-69
2021/01/10 02:54:21;;;;;;;26.55;19.40;;;;;;;0.76;84.77;100200.21;1769442;81;21083;-69
2021/01/10 02:57:04;;;;;;;25.20;19.17;;;;;;;0.75;84.83;100195.95;1769501;81;20956;-70
2021/01/10 02:59:35;;;;;;;28.60;19.82;;;;;;;0.75;84.86;100198.52;1769298;81;21012;-69
2021/01/10 03:02:04;;;;;;;29.15;20.85;;;;;;;0.75;84.99;100198.52;1769641;81;21621;-69
2021/01/10 03:04:32;;;;;;;28.10;19.95;;;;;;;0.76;85.21;100195.09;1744841;81;21245;-70
2021/01/10 03:07:01;;;;;;;28.98;19.23;;;;;;;0.76;85.11;100201.06;1713193;81;21037;-69
2021/01/10 03:09:29;;;;;;;27.37;19.65;;;;;;;0.78;85.29;100202.32;1801687;79;20937;-69
2021/01/10 03:12:19;;;;;;;28.87;20.65;;;;;;;0.79;85.19;100205.30;1801634;79;21000;-69
2021/01/10 03:14:48;;;;;;;29.90;20.10;;;;;;;0.79;85.25;100196.33;1793318;80;20933;-69
2021/01/10 03:17:41;;;;;;;26.50;19.87;;;;;;;0.78;85.18;100200.61;1793290;79;21207;-69
2021/01/10 03:20:15;;;;;;;25.97;18.90;;;;;;;0.78;85.21;100207.45;1793225;80;21004;-70
2021/01/10 03:22:45;;;;;;;27.87;19.25;;;;;;;0.79;85.30;100213.83;1793305;80;20941;-69
2021/01/10 03:25:17;;;;;;;27.27;19.40;;;;;;;0.81;85.29;100217.63;1793251;80;21016;-69
2021/01/10 03:27:45;;;;;;;29.30;19.73;;;;;;;0.81;85.30;100218.91;1793119;79;20949;-70
2021/01/10 03:30:16;;;;;;;29.18;19.50;;;;;;;0.81;85.32;100217.63;1793211;79;21470;-70
2021/01/10 03:32:45;;;;;;;30.08;20.27;;;;;;;0.79;85.37;100218.96;1793216;79;21020;-70
2021/01/10 03:35:15;;;;;;;30.85;21.33;;;;;;;0.79;85.35;100221.52;1793277;80;20989;-70
2021/01/10 03:37:44;;;;;;;28.60;20.23;;;;;;;0.78;85.47;100213.85;1793249;80;21016;-70
2021/01/10 03:40:13;;;;;;;26.77;20.50;;;;;;;0.79;85.56;100213.83;1793354;80;21458;-70
2021/01/10 03:42:42;;;;;;;26.85;19.55;;;;;;;0.78;85.48;100215.98;1793237;80;21592;-69
2021/01/10 03:45:11;;;;;;;27.90;19.67;;;;;;;0.77;85.57;100213.01;1793204;80;20905;-70
2021/01/10 03:47:39;;;;;;;27.27;19.07;;;;;;;0.76;85.52;100214.31;1793266;80;21059;-69
2021/01/10 03:50:09;;;;;;;28.02;19.12;;;;;;;0.75;85.51;100224.14;1793224;80;20941;-69
2021/01/10 03:52:37;;;;;;;25.25;18.25;;;;;;;0.75;85.51;100221.58;1793283;80;21454;-69
2021/01/10 03:55:07;;;;;;;27.25;18.92;;;;;;;0.72;85.52;100217.77;1793256;80;21252;-70
2021/01/10 03:57:38;;;;;;;23.57;17.75;;;;;;;0.70;85.53;100226.77;1793203;79;21415;-70
2021/01/10 04:00:09;;;;;;;25.45;18.57;;;;;;;0.67;85.59;100228.08;1793280;80;20988;-70
2021/01/10 04:02:39;;;;;;;26.65;19.00;;;;;;;0.66;85.66;100227.67;1793178;80;20940;-70
2021/01/10 04:05:09;;;;;;;29.35;19.90;;;;;;;0.66;85.66;100229.80;1804976;79;20939;-70
2021/01/10 04:07:38;;;;;;;25.55;18.52;;;;;;;0.65;85.74;100233.66;1807321;79;21208;-70
2021/01/10 04:10:07;;;;;;;19.87;15.23;;;;;;;0.66;85.78;100236.64;1769447;81;20964;-70
2021/01/10 04:12:35;;;;;;;17.60;14.75;;;;;;;0.64;85.41;100235.38;1769598;81;20948;-70
2021/01/10 04:15:06;;;;;;;16.50;13.00;;;;;;;0.66;84.74;100235.36;1769437;81;21004;-70
2021/01/10 04:17:35;;;;;;;17.57;14.13;;;;;;;0.67;84.27;100235.77;1769515;81;21016;-70
2021/01/10 04:20:04;;;;;;;21.80;14.93;;;;;;;0.66;83.82;100236.20;1769500;81;21378;-70
2021/01/10 04:22:33;;;;;;;19.32;15.05;;;;;;;0.64;83.65;100240.50;1769473;81;21036;-70
2021/01/10 04:25:01;;;;;;;18.12;14.43;;;;;;;0.65;83.58;100239.63;1769549;81;21653;-70
2021/01/10 04:27:30;;;;;;;18.95;15.43;;;;;;;0.66;83.65;100237.92;1769492;81;21542;-70
2021/01/10 04:29:58;;;;;;;19.57;15.35;;;;;;;0.68;83.51;100236.19;1769542;81;20965;-70
2021/01/10 04:32:27;;;;;;;19.52;14.35;;;;;;;0.70;83.35;100238.30;1769496;81;21382;-69
2021/01/10 04:34:55;;;;;;;19.55;14.05;;;;;;;0.71;83.17;100240.42;1769450;81;21019;-70
2021/01/10 04:37:23;;;;;;;20.10;14.30;;;;;;;0.71;83.05;100244.27;1769478;81;21016;-70
2021/01/10 04:39:53;;;;;;;17.75;12.95;;;;;;;0.71;83.08;100241.70;1769560;81;21458;-70
2021/01/10 04:42:24;;;;;;;20.15;14.65;;;;;;;0.70;83.04;100240.01;1769510;81;21000;-70
2021/01/10 04:44:54;;;;;;;17.27;12.63;;;;;;;0.68;82.98;100247.72;1769490;80;21173;-70
2021/01/10 04:47:22;;;;;;;16.65;12.40;;;;;;;0.68;82.85;100241.74;1769483;80;21571;-70
2021/01/10 04:49:51;;;;;;;14.60;12.47;;;;;;;0.68;83.49;100245.16;1769438;79;21071;-70
2021/01/10 04:52:20;;;;;;;15.40;12.53;;;;;;;0.74;84.04;100245.52;1741569;81;20897;-70
2021/01/10 04:54:48;;;;;;;16.42;12.68;;;;;;;0.83;83.94;100253.06;1769608;81;20969;-69
2021/01/10 04:57:17;;;;;;;15.43;12.40;;;;;;;0.92;84.01;100256.36;1769611;81;21212;-70
2021/01/10 04:59:45;;;;;;;15.60;13.43;;;;;;;1.00;84.00;100259.67;1769565;80;20960;-69
2021/01/10 05:02:14;;;;;;;15.58;12.23;;;;;;;1.09;83.46;100267.68;1769628;81;20989;-70
2021/01/10 05:04:42;;;;;;;13.78;11.75;;;;;;;1.14;83.29;100263.77;1733427;81;21084;-69
2021/01/10 05:07:12;;;;;;;14.50;12.07;;;;;;;1.20;82.85;100264.50;1752929;81;21034;-70
2021/01/10 05:09:40;;;;;;;15.45;12.55;;;;;;;1.26;82.64;100263.57;1702431;81;22361;-69
2021/01/10 05:12:09;;;;;;;16.00;12.05;;;;;;;1.32;82.31;100267.33;1752864;81;20973;-69
2021/01/10 05:14:37;;;;;;;17.82;13.15;;;;;;;1.40;81.97;100273.64;1752921;81;20902;-70
2021/01/10 05:17:07;;;;;;;21.15;14.93;;;;;;;1.47;81.59;100276.09;1752879;81;21009;-70
2021/01/10 05:19:36;;;;;;;18.95;14.50;;;;;;;1.54;81.20;100276.41;1725521;81;20941;-70
2021/01/10 05:22:10;;;;;;;65.62;48.90;;;;;;;1.57;80.85;100281.50;1701990;81;21231;-70
2021/01/10 05:24:39;;;;;;;27.27;21.75;;;;;;;1.58;80.39;100287.48;1752858;81;20929;-69
2021/01/10 05:27:08;;;;;;;25.35;19.20;;;;;;;1.54;79.85;100280.70;1752898;81;20957;-70
2021/01/10 05:29:36;;;;;;;18.95;15.35;;;;;;;1.47;79.62;100283.79;1752834;81;20962;-69
2021/01/10 05:32:05;;;;;;;20.37;15.55;;;;;;;1.42;79.80;100289.86;1752907;81;21017;-69
2021/01/10 05:34:34;;;;;;;17.80;13.13;;;;;;;1.35;80.04;100294.23;1726084;81;22247;-69
2021/01/10 05:37:14;;;;;;;19.90;14.23;;;;;;;1.29;79.66;100290.02;1752813;81;20934;-69
2021/01/10 05:39:45;;;;;;;17.12;13.25;;;;;;;1.22;80.32;100294.83;1752809;81;21103;-69
2021/01/10 05:42:13;;;;;;;14.98;12.53;;;;;;;1.23;80.59;100290.55;1752840;81;21017;-70
2021/01/10 05:44:48;;;;;;;17.73;13.55;;;;;;;1.25;80.83;100296.06;1752901;81;20961;-69
2021/01/10 05:47:18;;;;;;;16.87;13.00;;;;;;;1.31;80.62;100297.70;1753182;81;22246;-69
2021/01/10 05:49:54;;;;;;;15.30;11.40;;;;;;;1.37;80.38;100291.64;1752780;81;21008;-70
2021/01/10 05:52:22;;;;;;;13.65;11.63;;;;;;;1.43;79.84;100298.81;1753005;81;21005;-69
2021/01/10 05:54:55;;;;;;;14.75;12.90;;;;;;;1.48;79.34;100304.73;1752845;81;21088;-69
2021/01/10 05:57:29;;;;;;;16.25;12.45;;;;;;;1.47;78.73;100304.31;1775558;80;21064;-69
2021/01/10 05:59:58;;;;;;;14.40;11.68;;;;;;;1.42;78.42;100307.81;1783379;80;21277;-69
2021/01/10 06:02:32;;;;;;;14.20;11.55;;;;;;;1.35;78.25;100312.19;1783324;80;21511;-70
2021/01/10 06:05:17;;;;;;;17.00;12.35;;;;;;;1.26;78.15;100313.16;1792740;79;21048;-70
2021/01/10 06:07:47;;;;;;;16.50;11.88;;;;;;;1.19;78.28;100315.85;1801216;79;21479;-70
2021/01/10 06:10:27;;;;;;;16.90;12.50;;;;;;;1.12;78.41;100321.49;1801171;79;21012;-70
2021/01/10 06:13:06;;;;;;;17.92;13.10;;;;;;;1.06;78.60;100325.84;1801249;79;21148;-70
2021/01/10 06:15:35;;;;;;;19.60;13.43;;;;;;;1.00;78.86;100328.05;1801235;79;20993;-72
2021/01/10 06:18:05;;;;;;;25.65;16.45;;;;;;;0.96;79.18;100334.93;1801145;79;21020;-71
2021/01/10 06:20:34;;;;;;;28.00;17.95;;;;;;;0.94;79.38;100332.81;1801137;79;20992;-71
2021/01/10 06:23:05;;;;;;;25.62;16.57;;;;;;;0.91;79.42;100337.12;1801268;79;21155;-70
2021/01/10 06:25:37;;;;;;;22.15;14.75;;;;;;;0.87;79.64;100341.44;1801189;79;22354;-70
2021/01/10 06:28:11;;;;;;;18.20;14.25;;;;;;;0.85;79.84;100341.89;1801117;79;20989;-72
2021/01/10 06:30:54;;;;;;;19.45;15.28;;;;;;;0.82;79.98;100342.36;1799093;79;20944;-69
2021/01/10 06:33:30;;;;;;;22.50;17.67;;;;;;;0.78;80.11;100354.83;1772893;79;21042;-70
2021/01/10 06:36:06;;;;;;;21.50;17.42;;;;;;;0.73;80.17;100355.30;1801333;79;21499;-70
2021/01/10 06:38:39;;;;;;;21.57;15.50;;;;;;;0.68;80.32;100357.91;1801326;79;21203;-70
2021/01/10 06:41:52;;;;;;;20.12;15.32;;;;;;;0.66;80.57;100365.62;1801118;79;20945;-70
2021/01/10 06:44:21;;;;;;;23.50;15.48;;;;;;;0.64;80.65;100375.47;1801211;79;20897;-69
2021/01/10 06:46:52;;;;;;;19.10;14.03;;;;;;;0.58;80.68;100384.06;1801123;78;21471;-70
2021/01/10 06:49:22;;;;;;;18.90;14.60;;;;;;;0.54;80.75;100384.10;1801130;79;21017;-70
2021/01/10 06:52:00;;;;;;;19.80;15.23;;;;;;;0.53;81.02;100383.25;1801155;79;21207;-70
2021/01/10 06:54:28;;;;;;;20.88;14.87;;;;;;;0.53;81.08;100387.09;1801213;79;20949;-70
2021/01/10 06:56:57;;;;;;;19.17;13.72;;;;;;;0.55;81.18;100396.05;1801142;79;20941;-73
2021/01/10 06:59:30;;;;;;;16.57;12.82;;;;;;;0.55;81.12;100389.21;1801069;78;20949;-69
2021/01/10 07:01:59;;;;;;;17.35;14.15;;;;;;;0.56;81.15;100397.75;1801248;79;21356;-70
2021/01/10 07:04:39;;;;;;;18.45;13.43;;;;;;;0.55;81.13;100402.45;1797127;79;21327;-71
2021/01/10 07:07:07;;;;;;;17.23;13.28;;;;;;;0.55;81.10;100401.17;1773148;81;21531;-71
2021/01/10 07:09:53;;;;;;;17.27;13.83;;;;;;;0.52;81.03;100399.48;1773136;80;21591;-71
2021/01/10 07:12:22;;;;;;;16.73;12.82;;;;;;;0.53;81.71;100396.06;1773104;79;21057;-71
2021/01/10 07:14:52;;;;;;;16.93;13.22;;;;;;;0.57;81.81;100404.14;1773101;81;21072;-72
2021/01/10 07:17:21;;;;;;;17.37;13.35;;;;;;;0.63;81.65;100409.21;1773057;80;22187;-71
2021/01/10 07:19:50;;;;;;;17.65;13.72;;;;;;;0.66;81.24;100402.77;1772987;81;20990;-71
2021/01/10 07:22:24;;;;;;;17.15;13.05;;;;;;;0.69;80.91;100408.73;1773090;81;20922;-71
2021/01/10 07:24:53;;;;;;;16.60;13.03;;;;;;;0.70;80.75;100420.69;1773022;79;20970;-71
2021/01/10 07:27:33;;;;;;;14.53;11.70;;;;;;;0.69;80.51;100424.97;1773096;81;21021;-72
2021/01/10 07:30:24;;;;;;;16.82;12.88;;;;;;;0.66;80.51;100417.30;1773127;81;21158;-72
2021/01/10 07:32:52;;;;;;;18.40;14.07;;;;;;;0.64;80.49;100419.87;1772998;81;20973;-69
2021/01/10 07:35:21;;;;;;;18.48;14.65;;;;;;;0.63;80.59;100424.59;1773050;81;21049;-70
2021/01/10 07:37:51;;;;;;;19.52;14.35;;;;;;;0.64;80.59;100435.26;1773040;80;20950;-71
2021/01/10 07:40:23;;;;;;;19.00;13.53;;;;;;;0.66;80.65;100432.68;1773208;79;20903;-71
2021/01/10 07:43:00;;;;;;;19.42;14.60;;;;;;;0.66;80.60;100437.37;1773056;81;21210;-70
2021/01/10 07:45:38;;;;;;;21.17;14.30;;;;;;;0.68;80.57;100438.64;1772862;80;20946;-69
2021/01/10 07:48:08;;;;;;;18.10;13.45;;;;;;;0.70;80.31;100437.34;1773147;79;21667;-69
2021/01/10 07:50:36;;;;;;;17.60;13.90;;;;;;;0.68;80.09;100442.48;1772986;81;20958;-70
2021/01/10 07:53:04;;;;;;;22.73;16.10;;;;;;;0.68;80.05;100445.48;1773145;79;20993;-70
2021/01/10 07:55:33;;;;;;;22.25;16.32;;;;;;;0.68;79.80;100446.77;1773053;81;21235;-71
2021/01/10 07:58:08;;;;;;;18.98;13.65;;;;;;;0.66;79.72;100446.77;1772852;80;37440;-70
2021/01/10 08:00:49;;;;;;;16.42;12.70;;;;;;;0.68;79.82;100460.86;1773059;81;21607;-70
2021/01/10 08:03:23;;;;;;;16.70;13.00;;;;;;;0.68;79.79;100460.42;1772970;81;21373;-70
2021/01/10 08:06:01;;;;;;;19.90;13.08;;;;;;;0.68;79.78;100462.14;1751312;81;21333;-70
2021/01/10 08:08:39;;;;;;;16.23;12.78;;;;;;;0.67;79.75;100465.13;1773014;79;21206;-71
2021/01/10 08:11:09;;;;;;;17.92;13.55;;;;;;;0.67;79.77;100465.13;1772954;81;20974;-71
2021/01/10 08:13:40;;;;;;;21.10;15.35;;;;;;;0.64;79.71;100471.56;1773086;80;21449;-71
2021/01/10 08:16:13;;;;;;;19.77;14.60;;;;;;;0.61;79.69;100467.31;1772984;81;20934;-72
2021/01/10 08:18:46;;;;;;;17.73;14.05;;;;;;;0.59;79.67;100465.20;1773013;80;21603;-72
2021/01/10 08:21:16;;;;;;;16.35;14.18;;;;;;;0.57;79.79;100472.48;1773021;81;21785;-71
2021/01/10 08:23:53;;;;;;;23.20;14.00;;;;;;;0.57;79.96;100466.07;1772942;80;20977;-72
2021/01/10 08:26:22;;;;;;;17.12;13.62;;;;;;;0.56;79.97;100467.78;1773171;79;21034;-72
2021/01/10 08:29:01;;;;;;;17.30;14.50;;;;;;;0.55;80.11;100472.92;1773042;81;22090;-71
2021/01/10 08:31:31;;;;;;;18.27;14.60;;;;;;;0.55;80.26;100472.92;1773033;81;20954;-73
2021/01/10 08:34:08;;;;;;;19.20;15.65;;;;;;;0.53;80.37;100474.64;1773132;81;21376;-72
2021/01/10 08:36:36;;;;;;;;;;;;;;;0.53;80.50;100482.33;1775574;81;20965;-71
2021/01/10 08:39:09;;;;;;;18.23;14.03;;;;;;;0.54;80.51;100478.47;1773121;81;20132;-71
2021/01/10 08:41:47;;;;;;;18.48;14.98;;;;;;;0.53;80.38;100481.05;1772953;80;20980;-68
2021/01/10 08:44:16;;;;;;;17.30;12.18;;;;;;;0.50;80.25;100477.23;1772885;81;21034;-77
2021/01/10 08:46:48;;;;;;;15.70;12.00;;;;;;;0.48;80.18;100478.52;1773034;79;21260;-69
2021/01/10 08:49:17;;;;;;;18.82;13.20;;;;;;;0.47;80.10;100478.53;1772955;81;20958;-72
2021/01/10 08:51:49;;;;;;;14.45;11.85;;;;;;;0.45;80.05;100482.38;1772959;81;21031;-74
2021/01/10 08:54:24;;;;;;;16.00;11.43;;;;;;;0.47;79.97;100481.94;1772980;81;20946;-75
2021/01/10 08:56:56;;;;;;;15.35;11.80;;;;;;;0.47;79.65;100478.10;1773072;79;20962;-71
2021/01/10 08:59:36;;;;;;;15.85;12.18;;;;;;;0.47;79.63;100487.06;1772992;81;21208;-72
2021/01/10 09:02:08;;;;;;;17.02;11.45;;;;;;;0.47;79.58;100489.62;1773043;81;20998;-72
2021/01/10 09:04:44;;;;;;;12.70;11.03;;;;;;;0.45;79.49;100481.53;1773080;81;20958;-70
2021/01/10 09:07:19;;;;;;;15.30;11.70;;;;;;;0.44;79.52;100484.53;1772972;79;21136;-71
2021/01/10 09:10:00;;;;;;;16.32;11.88;;;;;;;0.43;79.50;100481.55;1773037;81;20938;-74
2021/01/10 09:12:47;;;;;;;13.50;10.50;;;;;;;0.42;79.35;100487.53;1762767;80;21344;-72
2021/01/10 09:15:34;;;;;;;15.98;11.30;;;;;;;0.43;79.45;100490.51;1772615;80;21021;-71
2021/01/10 09:18:10;;;;;;;17.77;10.75;;;;;;;0.43;79.44;100482.83;1773044;81;20950;-71
2021/01/10 09:20:43;;;;;;;13.22;10.35;;;;;;;0.45;79.35;100486.66;1772971;81;21602;-71
2021/01/10 09:23:12;;;;;;;16.65;11.28;;;;;;;0.44;79.38;100483.25;1773064;80;21001;-71
2021/01/10 09:25:40;;;;;;;12.98;10.43;;;;;;;0.43;79.44;100484.11;1772970;80;21194;-71
2021/01/10 09:28:15;;;;;;;15.18;11.60;;;;;;;0.45;79.72;100481.53;1772920;81;21515;-70
2021/01/10 09:30:47;;;;;;;13.13;10.48;;;;;;;0.50;79.68;100482.34;1773049;81;21587;-71
2021/01/10 09:33:29;;;;;;;12.43;9.95;;;;;;;0.52;79.51;100487.03;1772959;81;20998;-71
2021/01/10 09:36:00;;;;;;;14.07;11.90;;;;;;;0.55;79.36;100482.73;1773016;81;20954;-68
2021/01/10 09:38:31;;;;;;;13.75;11.73;;;;;;;0.56;79.15;100487.43;1773051;81;21017;-71
2021/01/10 09:41:12;;;;;;;14.07;11.12;;;;;;;0.59;79.17;100483.13;1773202;81;21548;-70
2021/01/10 09:43:50;;;;;;;12.07;10.53;;;;;;;0.61;78.83;100485.25;1773135;81;20899;-70
2021/01/10 09:46:38;;;;;;;12.03;10.30;;;;;;;0.60;78.65;100482.27;1773136;79;20954;-68
2021/01/10 09:49:19;;;;;;;12.88;10.28;;;;;;;0.59;78.39;100479.29;1773124;81;21006;-70
2021/01/10 09:52:03;;;;;;;11.20;9.48;;;;;;;0.58;78.10;100485.28;1729721;81;21200;-70
2021/01/10 09:54:32;;;;;;;15.38;9.68;;;;;;;0.61;78.45;100485.69;1773150;81;20998;-69
2021/01/10 09:57:13;;;;;;;11.03;9.75;;;;;;;0.63;78.15;100483.95;1773174;81;20938;-69
2021/01/10 09:59:57;;;;;;;15.18;9.63;;;;;;;0.63;77.94;100484.81;1773112;81;21025;-69
2021/01/10 10:02:36;;;;;;;12.13;9.28;;;;;;;0.66;78.02;100483.50;1771459;80;21291;-70
2021/01/10 10:05:19;;;;;;;13.08;10.05;;;;;;;0.72;77.94;100486.88;1773597;79;22108;-69
2021/01/10 10:07:50;;;;;;;12.00;9.58;;;;;;;0.75;77.86;100491.55;1801167;79;20945;-70
2021/01/10 10:10:24;;;;;;;12.25;10.05;;;;;;;0.81;77.67;100496.59;1801153;79;20937;-70
2021/01/10 10:12:55;;;;;;;13.28;9.70;;;;;;;0.81;77.33;100486.34;1801098;79;21040;-70
2021/01/10 10:15:36;;;;;;;16.45;10.82;;;;;;;0.83;76.83;100485.89;1801195;79;21046;-71
2021/01/10 10:18:16;;;;;;;12.35;9.80;;;;;;;0.87;76.95;100482.88;1848480;76;22112;-71
2021/01/10 10:20:45;;;;;;;12.55;8.25;;;;;;;0.82;76.87;100481.63;1818662;79;21368;-71
2021/01/10 10:23:14;;;;;;;16.25;9.80;;;;;;;0.80;77.01;100485.10;1818504;79;22022;-72
2021/01/10 10:25:43;;;;;;;10.00;8.10;;;;;;;0.79;77.53;100482.97;1818354;79;21009;-71
2021/01/10 10:28:12;;;;;;;10.60;8.38;;;;;;;0.82;77.01;100485.91;1818367;78;20878;-71
2021/01/10 10:30:42;;;;;;;9.78;7.92;;;;;;;0.85;76.41;100480.32;1818491;78;21448;-73
2021/01/10 10:33:11;;;;;;;11.50;7.53;;;;;;;0.88;76.14;100489.70;1818462;78;20922;-73
2021/01/10 10:35:39;;;;;;;8.63;7.65;;;;;;;0.91;76.10;100490.95;1818492;79;22143;-71
2021/01/10 10:38:10;;;;;;;10.40;7.30;;;;;;;0.96;76.05;100487.48;1818277;78;20961;-76
2021/01/10 10:40:40;;;;;;;7.65;6.80;;;;;;;1.04;74.84;100491.70;1818353;79;20997;-71
2021/01/10 10:43:08;;;;;;;10.48;7.15;;;;;;;1.10;74.13;100491.20;1818318;79;20890;-73
2021/01/10 10:45:37;;;;;;;9.33;7.05;;;;;;;1.16;74.55;100494.14;1818385;79;20886;-68
2021/01/10 10:48:07;;;;;;;11.22;7.03;;;;;;;1.22;73.61;100498.75;1818360;78;22301;-68
2021/01/10 10:50:35;;;;;;;9.78;6.95;;;;;;;1.28;73.24;100493.98;1818381;79;21591;-68
2021/01/10 10:53:08;;;;;;;14.68;6.75;;;;;;;1.35;72.70;100502.03;1818273;79;20972;-68
2021/01/10 10:55:36;;;;;;;6.67;6.08;;;;;;;1.41;72.38;100504.53;1818456;79;21301;-70
2021/01/10 10:58:07;;;;;;;6.83;6.20;;;;;;;1.47;71.67;100500.63;1818353;78;20945;-69
2021/01/10 11:00:37;;;;;;;7.72;5.78;;;;;;;1.55;71.28;100498.81;1818309;78;20890;-70
2021/01/10 11:03:08;;;;;;;6.33;5.72;;;;;;;1.61;71.37;100505.56;1818291;77;20902;-70
2021/01/10 11:05:38;;;;;;;6.90;5.97;;;;;;;1.66;71.05;100503.36;1818330;77;20965;-69
2021/01/10 11:08:06;;;;;;;6.85;6.08;;;;;;;1.69;70.62;100499.91;1818339;79;20890;-70
2021/01/10 11:10:35;;;;;;;6.95;6.08;;;;;;;1.70;70.21;100501.61;1818379;78;20989;-70
2021/01/10 11:13:03;;;;;;;9.88;7.20;;;;;;;1.67;69.40;100502.93;1818388;79;21185;-69
2021/01/10 11:15:32;;;;;;;14.20;7.67;;;;;;;1.62;69.65;100500.85;1818287;79;21003;-70
2021/01/10 11:18:00;;;;;;;7.55;6.08;;;;;;;1.58;70.19;100500.06;1821453;78;21562;-69
2021/01/10 11:20:29;;;;;;;8.80;7.28;;;;;;;1.56;69.56;100503.52;1822327;78;20934;-70
2021/01/10 11:23:01;;;;;;;10.08;6.60;;;;;;;1.51;69.57;100501.00;1822074;78;20914;-71
2021/01/10 11:25:32;;;;;;;6.75;5.87;;;;;;;1.49;69.77;100509.59;1822430;77;21364;-70
2021/01/10 11:28:00;;;;;;;5.87;5.35;;;;;;;1.44;69.63;100517.34;1822115;78;21496;-70
2021/01/10 11:30:29;;;;;;;6.15;5.15;;;;;;;1.40;69.84;100513.53;1821784;78;20926;-71
2021/01/10 11:32:57;;;;;;;6.10;5.50;;;;;;;1.31;69.93;100514.48;1821776;78;21009;-71
2021/01/10 11:35:26;;;;;;;6.80;5.30;;;;;;;1.26;71.20;100519.66;1821885;78;20973;-70
2021/01/10 11:37:54;;;;;;;7.50;5.65;;;;;;;1.26;72.21;100514.52;1821747;78;21478;-71
2021/01/10 11:40:24;;;;;;;7.30;5.78;;;;;;;1.33;72.38;100518.73;1821742;78;21036;-69